createdAt,value
2018-02-23T00:01:51.197Z,-0.34
2018-02-23T00:04:19.209Z,-0.10
2018-02-23T00:06:47.110Z,-0.13
2018-02-23T00:09:15.080Z,-0.11
2018-02-23T00:11:43.014Z,-0.21
2018-02-23T00:14:10.971Z,-0.37
2018-02-23T00:16:38.928Z,-0.25
2018-02-23T00:19:06.865Z,-0.39
2018-02-23T00:21:34.819Z,-0.50
2018-02-23T00:24:02.818Z,-0.49
2018-02-23T00:26:30.767Z,-0.47
2018-02-23T00:28:58.725Z,-0.55
2018-02-23T00:31:26.719Z,-0.61
2018-02-23T00:33:54.670Z,-0.71
2018-02-23T00:36:22.608Z,-0.67
2018-02-23T00:38:50.572Z,-0.66
2018-02-23T00:41:18.525Z,-0.76
2018-02-23T00:43:46.499Z,-0.70
2018-02-23T00:46:14.463Z,-0.69
2018-02-23T00:48:42.448Z,-0.56
2018-02-23T00:51:10.371Z,-0.76
2018-02-23T00:53:38.376Z,-0.72
2018-02-23T00:56:06.289Z,-0.73
2018-02-23T00:58:34.229Z,-0.67
2018-02-23T01:01:02.216Z,-0.64
2018-02-23T01:03:30.155Z,-0.70
2018-02-23T01:05:58.120Z,-0.82
2018-02-23T01:08:26.082Z,-0.89
2018-02-23T01:10:54.067Z,-0.86
2018-02-23T01:13:22.027Z,-0.68
2018-02-23T01:15:50.067Z,-0.62
2018-02-23T01:18:18.027Z,-0.60
2018-02-23T01:20:46.067Z,-0.80
2018-02-23T01:23:14.076Z,-0.87
2018-02-23T01:25:42.046Z,-0.82
2018-02-23T01:28:10.071Z,-0.76
2018-02-23T01:30:38.063Z,-0.90
2018-02-23T01:33:05.986Z,-0.76
2018-02-23T01:35:33.957Z,-0.93
2018-02-23T01:38:01.917Z,-0.82
2018-02-23T01:40:29.957Z,-0.80
2018-02-23T01:42:57.933Z,-0.83
2018-02-23T01:45:25.901Z,-0.84
2018-02-23T01:47:53.903Z,-0.77
2018-02-23T01:50:21.825Z,-0.80
2018-02-23T01:52:49.788Z,-0.93
2018-02-23T01:55:17.726Z,-0.90
2018-02-23T01:57:45.668Z,-0.93
2018-02-23T02:00:13.650Z,-0.86
2018-02-23T02:02:41.622Z,-0.93
2018-02-23T02:05:09.559Z,-0.97
2018-02-23T02:07:37.495Z,-0.91
2018-02-23T02:10:05.438Z,-0.97
2018-02-23T02:12:33.473Z,-0.89
2018-02-23T02:15:01.425Z,-1.04
2018-02-23T02:17:29.395Z,-1.02
2018-02-23T02:19:57.350Z,-0.94
2018-02-23T02:22:25.294Z,-0.96
2018-02-23T02:24:53.255Z,-1.05
2018-02-23T02:27:21.233Z,-1.05
2018-02-23T02:29:49.301Z,-0.93
2018-02-23T02:32:17.250Z,-1.09
2018-02-23T02:34:45.220Z,-1.11
2018-02-23T02:37:13.206Z,-1.02
2018-02-23T02:39:41.151Z,-0.91
2018-02-23T02:42:09.106Z,-0.99
2018-02-23T02:44:37.066Z,-1.02
2018-02-23T02:47:05.078Z,-1.04
2018-02-23T02:49:33.188Z,-1.11
2018-02-23T02:52:01.134Z,-0.99
2018-02-23T02:54:29.199Z,-1.04
2018-02-23T02:56:57.275Z,-1.13
2018-02-23T02:59:25.211Z,-1.20
2018-02-23T03:01:53.207Z,-1.18
2018-02-23T03:04:21.229Z,-1.21
2018-02-23T03:06:49.176Z,-1.14
2018-02-23T03:09:17.185Z,-1.18
2018-02-23T03:11:45.161Z,-1.20
2018-02-23T03:14:13.121Z,-1.23
2018-02-23T03:16:41.158Z,-1.21
2018-02-23T03:19:09.168Z,-1.26
2018-02-23T03:21:37.200Z,-1.25
2018-02-23T03:24:05.140Z,-1.19
2018-02-23T03:26:33.276Z,-1.14
2018-02-23T03:29:01.234Z,-1.26
2018-02-23T03:31:29.177Z,-1.28
2018-02-23T03:33:57.143Z,-1.32
2018-02-23T03:36:25.144Z,-1.45
2018-02-23T03:38:53.099Z,-1.39
2018-02-23T03:41:21.030Z,-1.42
2018-02-23T03:43:48.993Z,-1.52
2018-02-23T03:46:16.962Z,-1.43
2018-02-23T03:48:45.009Z,-1.45
2018-02-23T03:51:13.068Z,-1.50
2018-02-23T03:53:41.013Z,-1.48
2018-02-23T03:56:08.945Z,-1.68
2018-02-23T03:58:37.014Z,-1.55
2018-02-23T04:01:04.964Z,-1.63
2018-02-23T04:03:32.906Z,-1.60
2018-02-23T04:06:00.892Z,-1.65
2018-02-23T04:08:28.859Z,-1.76
2018-02-23T04:10:56.779Z,-1.67
2018-02-23T04:13:24.722Z,-1.68
2018-02-23T04:15:52.689Z,-1.59
2018-02-23T04:18:20.662Z,-1.60
2018-02-23T04:20:48.597Z,-1.32
2018-02-23T04:23:16.533Z,-1.64
2018-02-23T04:25:44.515Z,-1.71
2018-02-23T04:28:12.470Z,-1.69
2018-02-23T04:30:40.443Z,-1.72
2018-02-23T04:33:08.385Z,-1.63
2018-02-23T04:35:36.354Z,-1.60
2018-02-23T04:38:04.322Z,-1.53
2018-02-23T04:40:32.298Z,-1.58
2018-02-23T04:43:00.250Z,-1.71
2018-02-23T04:45:28.322Z,-1.77
2018-02-23T04:47:56.297Z,-1.65
2018-02-23T04:50:24.370Z,-1.47
2018-02-23T04:52:52.301Z,-1.17
2018-02-23T04:55:20.279Z,-0.86
2018-02-23T04:57:48.347Z,-0.83
2018-02-23T05:00:16.304Z,-0.82
2018-02-23T05:02:44.298Z,-1.05
2018-02-23T05:05:12.241Z,-1.26
2018-02-23T05:07:40.193Z,-1.35
2018-02-23T05:10:08.148Z,-1.24
2018-02-23T05:12:36.161Z,-1.36
2018-02-23T05:15:04.165Z,-1.45
2018-02-23T05:17:32.176Z,-1.45
2018-02-23T05:20:00.107Z,-1.63
2018-02-23T05:22:28.108Z,-1.69
2018-02-23T05:24:56.084Z,-1.71
2018-02-23T05:27:24.098Z,-1.78
2018-02-23T05:29:52.060Z,-1.85
2018-02-23T05:32:20.089Z,-1.70
2018-02-23T05:34:48.025Z,-1.85
2018-02-23T05:37:16.030Z,-1.98
2018-02-23T05:39:44.003Z,-1.63
2018-02-23T05:42:12.047Z,-1.86
2018-02-23T05:44:39.985Z,-1.95
2018-02-23T05:47:07.953Z,-1.82
2018-02-23T05:49:35.950Z,-1.95
2018-02-23T05:52:03.977Z,-1.95
2018-02-23T05:54:31.980Z,-1.94
2018-02-23T05:57:00.470Z,-1.97
2018-02-23T05:59:28.438Z,-2.04
2018-02-23T06:01:56.398Z,-1.99
2018-02-23T06:04:24.371Z,-1.98
2018-02-23T06:06:52.402Z,-2.04
2018-02-23T06:09:20.370Z,-2.08
2018-02-23T06:11:48.442Z,-2.05
2018-02-23T06:14:16.411Z,-2.10
2018-02-23T06:16:44.393Z,-2.10
2018-02-23T06:19:12.333Z,-2.07
2018-02-23T06:21:40.366Z,-1.99
2018-02-23T06:24:08.327Z,-2.05
2018-02-23T06:26:36.296Z,-2.02
2018-02-23T06:29:05.394Z,-2.02
2018-02-23T06:31:33.520Z,-2.03
2018-02-23T06:34:01.465Z,-1.98
2018-02-23T06:36:29.442Z,-1.94
2018-02-23T06:38:57.381Z,-1.91
2018-02-23T06:41:25.354Z,-2.02
2018-02-23T06:43:53.328Z,-0.77
2018-02-23T06:46:21.267Z,-1.27
2018-02-23T06:48:49.247Z,-1.50
2018-02-23T06:51:17.179Z,-1.74
2018-02-23T06:53:45.155Z,-1.72
2018-02-23T06:56:13.191Z,-1.52
2018-02-23T06:58:41.137Z,-1.29
2018-02-23T07:01:09.156Z,-1.17
2018-02-23T07:03:37.087Z,-1.29
2018-02-23T07:06:05.051Z,-1.50
2018-02-23T07:08:33.012Z,-1.63
2018-02-23T07:11:00.975Z,-1.65
2018-02-23T07:13:28.897Z,-1.54
2018-02-23T07:15:56.970Z,-1.64
2018-02-23T07:18:24.929Z,-1.70
2018-02-23T07:20:52.858Z,-1.79
2018-02-23T07:23:20.807Z,-1.77
2018-02-23T07:25:48.903Z,-1.64
2018-02-23T07:28:16.881Z,-1.61
2018-02-23T07:30:44.818Z,-1.40
2018-02-23T07:33:12.816Z,-1.13
2018-02-23T07:35:40.757Z,-0.93
2018-02-23T07:38:08.719Z,-0.98
2018-02-23T07:40:36.725Z,-1.10
2018-02-23T07:43:04.693Z,-1.09
2018-02-23T07:45:32.666Z,-1.16
2018-02-23T07:48:00.664Z,-1.10
2018-02-23T07:50:28.664Z,-1.28
2018-02-23T07:52:57.421Z,-1.27
2018-02-23T07:55:25.454Z,-1.20
2018-02-23T07:57:53.430Z,-0.79
2018-02-23T08:00:21.400Z,-0.55
2018-02-23T08:02:49.391Z,-0.61
2018-02-23T08:05:18.282Z,-0.90
2018-02-23T08:07:46.227Z,-0.97
2018-02-23T08:10:14.200Z,-0.71
2018-02-23T08:12:42.232Z,-0.99
2018-02-23T08:15:10.177Z,-0.98
2018-02-23T08:17:38.457Z,-0.91
2018-02-23T08:20:07.194Z,-1.02
2018-02-23T08:22:35.685Z,-1.44
2018-02-23T08:25:03.714Z,-1.30
2018-02-23T08:27:31.714Z,-1.14
2018-02-23T08:29:59.685Z,-0.98
2018-02-23T08:32:27.647Z,-1.06
2018-02-23T08:34:55.597Z,-0.85
2018-02-23T08:37:23.537Z,-0.81
2018-02-23T08:39:51.697Z,-0.80
2018-02-23T08:42:19.637Z,-0.75
2018-02-23T08:44:47.611Z,-0.52
2018-02-23T08:47:15.558Z,-0.68
2018-02-23T08:49:43.723Z,-0.89
2018-02-23T08:52:11.664Z,-0.76
2018-02-23T08:54:39.617Z,-0.67
2018-02-23T08:57:07.570Z,-0.66
2018-02-23T08:59:35.554Z,-0.65
2018-02-23T09:02:03.630Z,-0.54
2018-02-23T09:04:31.599Z,-0.45
2018-02-23T09:06:59.528Z,-0.25
2018-02-23T09:09:27.531Z,-0.00
2018-02-23T09:11:55.633Z,0.20
2018-02-23T09:14:23.597Z,0.69
2018-02-23T09:16:51.588Z,0.77
2018-02-23T09:19:20.321Z,1.35
2018-02-23T09:21:48.591Z,2.07
2018-02-23T09:24:16.587Z,2.67
2018-02-23T09:26:44.574Z,3.05
2018-02-23T09:29:12.551Z,3.10
2018-02-23T09:31:41.029Z,3.95
2018-02-23T09:37:09.472Z,4.07
2018-02-23T09:39:37.411Z,4.43
2018-02-23T09:42:05.524Z,3.79
2018-02-23T09:44:33.530Z,4.15
2018-02-23T09:47:01.450Z,3.64
2018-02-23T09:49:29.443Z,3.79
2018-02-23T09:51:57.539Z,3.92
2018-02-23T09:54:25.461Z,3.08
2018-02-23T09:56:53.449Z,3.26
2018-02-23T09:59:21.451Z,3.41
2018-02-23T10:01:49.368Z,3.19
2018-02-23T10:04:17.347Z,3.65
2018-02-23T10:06:45.326Z,4.33
2018-02-23T10:09:13.277Z,4.91
2018-02-23T10:11:41.443Z,4.78
2018-02-23T10:14:09.441Z,4.68
2018-02-23T10:16:37.446Z,4.93
2018-02-23T10:19:05.414Z,4.66
2018-02-23T10:21:33.351Z,5.37
2018-02-23T10:24:01.375Z,5.38
2018-02-23T10:26:29.542Z,5.93
2018-02-23T10:28:57.497Z,5.93
2018-02-23T10:31:25.487Z,6.35
2018-02-23T10:33:53.463Z,6.72
2018-02-23T10:36:21.413Z,6.73
2018-02-23T10:38:49.348Z,7.16
2018-02-23T10:41:17.293Z,7.19
2018-02-23T10:43:45.234Z,7.75
2018-02-23T10:46:13.455Z,7.45
2018-02-23T10:48:41.455Z,8.04
2018-02-23T10:51:09.398Z,8.46
2018-02-23T10:53:38.893Z,8.22
2018-02-23T10:56:06.995Z,8.20
2018-02-23T10:58:34.975Z,8.31
2018-02-23T11:01:03.010Z,8.16
2018-02-23T11:03:31.194Z,7.87
2018-02-23T11:05:59.155Z,8.78
2018-02-23T11:08:27.104Z,8.35
2018-02-23T11:10:55.248Z,8.60
2018-02-23T11:13:23.187Z,7.89
2018-02-23T11:15:51.196Z,8.43
2018-02-23T11:18:19.145Z,7.98
2018-02-23T11:20:47.104Z,8.13
2018-02-23T11:23:15.092Z,8.68
2018-02-23T11:25:43.055Z,8.11
2018-02-23T11:28:11.066Z,7.71
2018-02-23T11:30:39.078Z,7.38
2018-02-23T11:33:07.004Z,7.50
2018-02-23T11:35:35.146Z,7.64
2018-02-23T11:38:03.075Z,7.23
2018-02-23T11:40:31.116Z,7.63
2018-02-23T11:42:59.049Z,7.64
2018-02-23T11:45:27.123Z,6.75
2018-02-23T11:47:55.075Z,7.27
2018-02-23T11:50:23.055Z,7.24
2018-02-23T11:52:50.965Z,7.13
2018-02-23T11:55:18.906Z,7.25
2018-02-23T11:57:47.014Z,6.95
2018-02-23T12:00:15.042Z,6.71
2018-02-23T12:02:43.001Z,7.45
2018-02-23T12:05:10.930Z,7.84
2018-02-23T12:07:38.917Z,8.02
2018-02-23T12:10:06.961Z,8.16
2018-02-23T12:12:34.941Z,7.11
2018-02-23T12:15:02.851Z,6.72
2018-02-23T12:17:30.811Z,7.09
2018-02-23T12:19:58.786Z,7.19
2018-02-23T12:22:26.827Z,7.89
2018-02-23T12:24:54.839Z,7.64
2018-02-23T12:27:22.973Z,6.91
2018-02-23T12:29:51.018Z,7.19
2018-02-23T12:32:19.039Z,7.84
2018-02-23T12:34:47.039Z,8.18
2018-02-23T12:37:15.015Z,7.53
2018-02-23T12:39:43.107Z,6.52
2018-02-23T12:42:11.174Z,6.41
2018-02-23T12:44:39.138Z,6.48
2018-02-23T12:47:07.059Z,6.68
2018-02-23T12:49:35.094Z,6.66
2018-02-23T12:52:03.051Z,6.48
2018-02-23T12:54:30.977Z,6.84
2018-02-23T12:56:58.963Z,6.51
2018-02-23T12:59:26.911Z,6.78
2018-02-23T13:01:54.838Z,6.13
2018-02-23T13:04:22.802Z,5.76
2018-02-23T13:06:50.769Z,5.38
2018-02-23T13:09:18.742Z,4.88
2018-02-23T13:11:46.742Z,4.69
2018-02-23T13:16:49.111Z,4.45
2018-02-23T13:19:17.070Z,4.34
2018-02-23T13:21:45.140Z,4.07
2018-02-23T13:24:13.060Z,3.75
2018-02-23T13:26:41.040Z,3.89
2018-02-23T13:29:09.020Z,3.62
2018-02-23T13:31:37.006Z,3.38
2018-02-23T13:34:04.982Z,3.55
2018-02-23T13:36:32.911Z,3.33
2018-02-23T13:39:00.992Z,3.14
2018-02-23T13:41:34.686Z,3.15
2018-02-23T13:44:02.726Z,3.30
2018-02-23T13:46:30.718Z,2.74
2018-02-23T13:48:58.740Z,2.94
2018-02-23T13:51:26.807Z,3.17
2018-02-23T13:53:55.283Z,2.96
2018-02-23T13:56:23.221Z,2.78
2018-02-23T13:58:51.189Z,2.67
2018-02-23T14:01:19.135Z,2.72
2018-02-23T14:03:47.077Z,2.69
2018-02-23T14:06:15.076Z,2.64
2018-02-23T14:08:43.003Z,2.62
2018-02-23T14:11:11.014Z,2.67
2018-02-23T14:13:38.999Z,2.66
2018-02-23T14:16:06.941Z,2.73
2018-02-23T14:18:34.902Z,2.57
2018-02-23T14:21:02.842Z,2.59
2018-02-23T14:23:30.845Z,2.50
2018-02-23T14:25:58.834Z,2.56
2018-02-23T14:28:26.934Z,2.41
2018-02-23T14:30:54.926Z,2.34
2018-02-23T14:33:22.965Z,2.00
2018-02-23T14:35:50.932Z,2.03
2018-02-23T14:38:18.865Z,2.08
2018-02-23T14:40:46.805Z,2.08
2018-02-23T14:43:14.755Z,2.12
2018-02-23T14:45:42.739Z,2.25
2018-02-23T14:48:10.711Z,2.13
2018-02-23T14:50:50.401Z,2.15
2018-02-23T14:53:18.603Z,1.91
2018-02-23T14:55:46.557Z,2.03
2018-02-23T14:58:14.510Z,2.06
2018-02-23T15:00:42.632Z,2.00
2018-02-23T15:03:10.811Z,1.83
2018-02-23T15:05:38.781Z,1.82
2018-02-23T15:08:06.886Z,1.88
2018-02-23T15:10:34.839Z,1.84
2018-02-23T15:13:03.717Z,1.78
2018-02-23T15:15:31.643Z,1.81
2018-02-23T15:17:59.933Z,1.72
2018-02-23T15:20:27.849Z,1.56
2018-02-23T15:22:55.983Z,1.54
2018-02-23T15:25:23.905Z,1.67
2018-02-23T15:27:51.895Z,1.67
2018-02-23T15:30:34.163Z,1.63
2018-02-23T15:33:02.578Z,1.65
2018-02-23T15:35:30.649Z,1.45
2018-02-23T15:37:59.413Z,1.58
2018-02-23T15:40:27.361Z,1.52
2018-02-23T15:42:55.592Z,1.61
2018-02-23T15:45:24.456Z,1.58
2018-02-23T15:47:58.753Z,1.50
2018-02-23T15:50:26.743Z,1.56
2018-02-23T15:52:54.790Z,1.41
2018-02-23T15:55:22.743Z,1.45
2018-02-23T15:58:04.540Z,1.39
2018-02-23T16:00:32.458Z,1.27
2018-02-23T16:03:00.389Z,1.29
2018-02-23T16:05:28.461Z,1.16
2018-02-23T16:07:56.420Z,1.04
2018-02-23T16:10:24.520Z,1.03
2018-02-23T16:12:52.513Z,1.05
2018-02-23T16:15:20.490Z,1.01
2018-02-23T16:17:48.520Z,1.05
2018-02-23T16:20:16.574Z,1.13
2018-02-23T16:22:44.605Z,1.16
2018-02-23T16:25:12.923Z,1.02
2018-02-23T16:27:40.884Z,0.97
2018-02-23T16:30:08.873Z,1.01
2018-02-23T16:32:36.837Z,1.14
2018-02-23T16:35:04.902Z,1.11
2018-02-23T16:37:33.485Z,1.17
2018-02-23T16:40:01.576Z,0.96
2018-02-23T16:42:29.579Z,1.50
2018-02-23T16:44:57.564Z,1.79
2018-02-23T16:47:25.571Z,1.86
2018-02-23T16:49:53.635Z,1.54
2018-02-23T16:52:21.611Z,1.34
2018-02-23T16:54:49.639Z,1.17
2018-02-23T16:57:18.032Z,1.04
2018-02-23T16:59:46.000Z,0.93
2018-02-23T17:02:14.328Z,0.87
2018-02-23T17:04:42.266Z,0.89
2018-02-23T17:07:10.210Z,0.80
2018-02-23T17:09:38.264Z,0.74
2018-02-23T17:12:06.211Z,0.75
2018-02-23T17:14:34.211Z,0.72
2018-02-23T17:17:02.282Z,0.66
2018-02-23T17:19:30.337Z,0.68
2018-02-23T17:21:58.288Z,0.59
2018-02-23T17:24:26.202Z,0.61
2018-02-23T17:26:54.153Z,0.61
2018-02-23T17:29:22.135Z,0.47
2018-02-23T17:31:50.152Z,0.38
2018-02-23T17:34:18.157Z,0.47
2018-02-23T17:36:46.204Z,0.52
2018-02-23T17:39:14.173Z,0.64
2018-02-23T17:41:42.146Z,0.55
2018-02-23T17:44:10.146Z,0.52
2018-02-23T17:46:38.168Z,0.52
2018-02-23T17:49:06.155Z,0.50
2018-02-23T17:51:34.123Z,0.46
2018-02-23T17:54:02.355Z,0.45
2018-02-23T17:56:30.318Z,0.35
2018-02-23T17:58:58.721Z,0.37
2018-02-23T18:01:26.719Z,0.31
2018-02-23T18:03:54.660Z,0.35
2018-02-23T18:06:22.595Z,0.31
2018-02-23T18:08:50.507Z,0.21
2018-02-23T18:11:18.433Z,0.22
2018-02-23T18:13:46.357Z,0.13
2018-02-23T18:16:14.775Z,0.18
2018-02-23T18:18:42.692Z,0.16
2018-02-23T18:21:10.655Z,0.09
2018-02-23T18:23:38.591Z,0.03
2018-02-23T18:26:06.550Z,0.48
2018-02-23T18:28:34.539Z,0.22
2018-02-23T18:31:02.501Z,0.13
2018-02-23T18:33:30.468Z,0.18
2018-02-23T18:35:58.711Z,0.09
2018-02-23T18:38:26.729Z,-0.03
2018-02-23T18:40:55.079Z,0.01
2018-02-23T18:43:23.034Z,-0.02
2018-02-23T18:45:50.976Z,0.07
2018-02-23T18:48:18.908Z,0.03
2018-02-23T18:50:46.846Z,0.15
2018-02-23T18:53:14.799Z,-0.00
2018-02-23T18:55:42.746Z,-0.05
2018-02-23T18:58:10.681Z,-0.00
2018-02-23T19:00:38.637Z,-0.03
2018-02-23T19:03:06.654Z,0.03
2018-02-23T19:05:34.641Z,-0.09
2018-02-23T19:08:02.619Z,-0.19
2018-02-23T19:10:30.615Z,-0.22
2018-02-23T19:12:58.658Z,-0.21
2018-02-23T19:15:26.665Z,-0.25
2018-02-23T19:17:54.645Z,-0.14
2018-02-23T19:20:22.614Z,-0.14
2018-02-23T19:22:50.562Z,-0.23
2018-02-23T19:25:18.598Z,-0.27
2018-02-23T19:27:46.661Z,-0.27
2018-02-23T19:30:14.652Z,-0.32
2018-02-23T19:32:42.695Z,-0.32
2018-02-23T19:35:10.664Z,-0.13
2018-02-23T19:37:38.656Z,-0.31
2018-02-23T19:40:07.686Z,-0.22
2018-02-23T19:42:35.703Z,-0.34
2018-02-23T19:45:03.670Z,-0.31
2018-02-23T19:47:31.646Z,-0.32
2018-02-23T19:49:59.612Z,-0.32
2018-02-23T19:52:27.650Z,-0.21
2018-02-23T19:54:55.633Z,-0.22
2018-02-23T19:57:23.656Z,-0.22
2018-02-23T19:59:52.548Z,-0.32
2018-02-23T20:02:20.499Z,-0.35
2018-02-23T20:04:48.485Z,-0.43
2018-02-23T20:07:16.492Z,-0.20
2018-02-23T20:09:44.440Z,-0.25
2018-02-23T20:12:12.625Z,0.64
2018-02-23T20:14:40.607Z,0.59
2018-02-23T20:17:08.590Z,0.86
2018-02-23T20:19:36.583Z,0.92
2018-02-23T20:22:04.613Z,1.07
2018-02-23T20:24:32.764Z,1.27
2018-02-23T20:27:00.731Z,0.96
2018-02-23T20:29:28.717Z,0.76
2018-02-23T20:31:56.673Z,0.72
2018-02-23T20:34:24.616Z,0.75
2018-02-23T20:36:52.653Z,0.69
2018-02-23T20:39:20.781Z,1.01
2018-02-23T20:41:49.332Z,1.13
2018-02-23T20:44:17.310Z,1.33
2018-02-23T20:46:45.331Z,1.38
2018-02-23T20:49:13.368Z,1.28
2018-02-23T20:51:41.417Z,0.98
2018-02-23T20:54:09.440Z,0.92
2018-02-23T20:56:37.450Z,1.02
2018-02-23T20:59:05.403Z,0.98
2018-02-23T21:01:33.400Z,0.92
2018-02-23T21:04:01.438Z,0.89
2018-02-23T21:06:29.872Z,0.86
2018-02-23T21:08:57.873Z,0.87
2018-02-23T21:14:00.153Z,0.73
2018-02-23T21:16:28.207Z,0.79
2018-02-23T21:18:56.162Z,0.74
2018-02-23T21:21:24.094Z,0.68
2018-02-23T21:23:52.144Z,0.60
2018-02-23T21:26:20.181Z,0.67
2018-02-23T21:28:48.130Z,0.71
2018-02-23T21:31:16.118Z,0.73
2018-02-23T21:33:44.055Z,0.78
2018-02-23T21:36:12.012Z,0.66
2018-02-23T21:38:41.308Z,0.67
2018-02-23T21:41:09.222Z,0.68
2018-02-23T21:43:37.510Z,0.61
2018-02-23T21:46:05.490Z,0.69
2018-02-23T21:48:33.698Z,0.69
2018-02-23T21:51:02.063Z,0.67
2018-02-23T21:53:29.982Z,0.64
2018-02-23T21:55:57.970Z,0.67
2018-02-23T21:58:25.962Z,0.77
2018-02-23T22:00:53.874Z,0.73
2018-02-23T22:03:21.856Z,0.74
2018-02-23T22:05:49.799Z,0.65
2018-02-23T22:08:17.746Z,0.69
2018-02-23T22:10:45.715Z,0.77
2018-02-23T22:13:13.654Z,0.80
2018-02-23T22:15:41.601Z,0.86
2018-02-23T22:18:09.543Z,0.81
2018-02-23T22:20:37.509Z,0.82
2018-02-23T22:23:05.562Z,0.80
2018-02-23T22:25:33.542Z,0.83
2018-02-23T22:28:01.519Z,0.94
2018-02-23T22:30:29.446Z,0.84
2018-02-23T22:32:57.449Z,0.82
2018-02-23T22:35:25.419Z,0.86
2018-02-23T22:37:53.387Z,0.84
2018-02-23T22:40:21.350Z,0.93
2018-02-23T22:42:49.367Z,0.89
2018-02-23T22:45:17.326Z,1.01
2018-02-23T22:47:45.301Z,0.89
2018-02-23T22:50:13.244Z,1.01
2018-02-23T22:52:41.197Z,0.97
2018-02-23T22:55:09.183Z,0.98
2018-02-23T22:57:37.438Z,1.51
2018-02-23T23:00:05.522Z,1.56
2018-02-23T23:02:33.451Z,1.73
2018-02-23T23:05:01.372Z,1.51
2018-02-23T23:07:29.310Z,1.29
2018-02-23T23:09:57.264Z,1.17
2018-02-23T23:12:25.266Z,1.20
2018-02-23T23:14:53.392Z,1.16
2018-02-23T23:17:21.416Z,1.56
2018-02-23T23:19:49.389Z,2.83
2018-02-23T23:22:17.356Z,3.34
2018-02-23T23:24:45.282Z,3.68
2018-02-23T23:27:13.326Z,4.14
2018-02-23T23:29:41.319Z,3.87
2018-02-23T23:32:09.308Z,4.35
2018-02-23T23:34:37.272Z,4.41
2018-02-23T23:37:05.222Z,4.00
2018-02-23T23:39:33.304Z,3.40
2018-02-23T23:42:01.336Z,3.21
2018-02-23T23:44:29.238Z,3.24
2018-02-23T23:46:57.206Z,3.05
2018-02-23T23:49:25.183Z,2.91
2018-02-23T23:51:53.268Z,3.20
2018-02-23T23:54:21.367Z,3.02
2018-02-23T23:56:49.329Z,3.03
2018-02-23T23:59:17.330Z,2.15
